sensor_id;sensor_type;location;lat;lon;timestamp;temperature;humidity
14359;DHT22;7263;49.418;11.064;2024-01-15T00:01:49;-3.40;99.90
14359;DHT22;7263;49.418;11.064;2024-01-15T00:04:19;-3.50;99.90
14359;DHT22;7263;49.418;11.064;2024-01-15T00:06:46;-3.50;99.90
14359;DHT22;7263;49.418;11.064;2024-01-15T00:09:22;-3.50;99.90
14359;DHT22;7263;49.418;11.064;2024-01-15T00:11:48;-3.50;99.90
14359;DHT22;7263;49.418;11.064;2024-01-15T00:14:15;-3.50;99.90
14359;DHT22;7263;49.418;11.064;2024-01-15T00:16:47;-3.50;99.90
14359;DHT22;7263;49.418;11.064;2024-01-15T00:19:19;-3.60;99.90
14359;DHT22;7263;49.418;11.064;2024-01-15T00:21:46;-3.50;99.90
14359;DHT22;7263;49.418;11.064;2024-01-15T00:24:13;-3.60;99.90
14359;DHT22;7263;49.418;11.064;2024-01-15T00:26:41;-3.60;99.90
14359;DHT22;7263;49.418;11.064;2024-01-15T00:29:08;-3.50;99.90
14359;DHT22;7263;49.418;11.064;2024-01-15T00:31:38;-3.60;99.90
14359;DHT22;7263;49.418;11.064;2024-01-15T00:34:04;-3.50;99.90
14359;DHT22;7263;49.418;11.064;2024-01-15T00:36:37;-3.60;99.90
14359;DHT22;7263;49.418;11.064;2024-01-15T00:39:04;-3.50;99.90
14359;DHT22;7263;49.418;11.064;2024-01-15T00:41:40;-3.60;99.90
14359;DHT22;7263;49.418;11.064;2024-01-15T00:44:07;-3.60;99.90
14359;DHT22;7263;49.418;11.064;2024-01-15T00:46:45;-3.60;99.90
14359;DHT22;7263;49.418;11.064;2024-01-15T00:49:12;-3.40;99.90
14359;DHT22;7263;49.418;11.064;2024-01-15T00:51:39;-3.50;99.90
14359;DHT22;7263;49.418;11.064;2024-01-15T00:54:06;-3.50;99.90
14359;DHT22;7263;49.418;11.064;2024-01-15T00:56:38;-3.50;99.90
14359;DHT22;7263;49.418;11.064;2024-01-15T00:59:08;-3.50;99.90
14359;DHT22;7263;49.418;11.064;2024-01-15T01:01:40;-3.50;99.90
14359;DHT22;7263;49.418;11.064;2024-01-15T01:04:20;-3.50;99.90
14359;DHT22;7263;49.418;11.064;2024-01-15T01:06:49;-3.50;99.90
14359;DHT22;7263;49.418;11.064;2024-01-15T01:09:20;-3.40;99.90
14359;DHT22;7263;49.418;11.064;2024-01-15T01:11:49;-3.40;99.90
14359;DHT22;7263;49.418;11.064;2024-01-15T01:14:23;-3.40;99.90
14359;DHT22;7263;49.418;11.064;2024-01-15T01:16:52;-3.40;99.90
14359;DHT22;7263;49.418;11.064;2024-01-15T01:19:18;-3.30;99.90
14359;DHT22;7263;49.418;11.064;2024-01-15T01:21:45;-3.30;99.90
14359;DHT22;7263;49.418;11.064;2024-01-15T01:24:12;-3.20;99.90
14359;DHT22;7263;49.418;11.064;2024-01-15T01:26:39;-3.20;99.90
14359;DHT22;7263;49.418;11.064;2024-01-15T01:29:11;-3.20;99.90
14359;DHT22;7263;49.418;11.064;2024-01-15T01:31:43;-3.10;99.90
14359;DHT22;7263;49.418;11.064;2024-01-15T01:34:16;-3.10;99.90
14359;DHT22;7263;49.418;11.064;2024-01-15T01:36:43;-3.10;99.90
14359;DHT22;7263;49.418;11.064;2024-01-15T01:39:10;-3.00;99.90
14359;DHT22;7263;49.418;11.064;2024-01-15T01:41:38;-3.10;99.90
14359;DHT22;7263;49.418;11.064;2024-01-15T01:44:05;-3.00;99.90
14359;DHT22;7263;49.418;11.064;2024-01-15T01:46:32;-3.00;99.90
14359;DHT22;7263;49.418;11.064;2024-01-15T01:49:01;-3.00;99.90
14359;DHT22;7263;49.418;11.064;2024-01-15T01:51:34;-3.00;99.90
14359;DHT22;7263;49.418;11.064;2024-01-15T01:54:01;-3.00;99.90
14359;DHT22;7263;49.418;11.064;2024-01-15T01:56:31;-2.90;99.90
14359;DHT22;7263;49.418;11.064;2024-01-15T01:58:58;-2.90;99.90
14359;DHT22;7263;49.418;11.064;2024-01-15T02:01:31;-2.90;99.90
14359;DHT22;7263;49.418;11.064;2024-01-15T02:04:01;-2.90;99.90
14359;DHT22;7263;49.418;11.064;2024-01-15T02:06:35;-2.80;99.90
14359;DHT22;7263;49.418;11.064;2024-01-15T02:09:11;-2.80;99.90
14359;DHT22;7263;49.418;11.064;2024-01-15T02:11:40;-2.80;99.90
14359;DHT22;7263;49.418;11.064;2024-01-15T02:14:08;-2.80;99.90
14359;DHT22;7263;49.418;11.064;2024-01-15T02:16:35;-2.80;99.90
14359;DHT22;7263;49.418;11.064;2024-01-15T02:19:07;-2.80;99.90
14359;DHT22;7263;49.418;11.064;2024-01-15T02:21:42;-2.80;99.90
14359;DHT22;7263;49.418;11.064;2024-01-15T02:24:10;-2.80;99.90
14359;DHT22;7263;49.418;11.064;2024-01-15T02:26:42;-2.80;99.90
14359;DHT22;7263;49.418;11.064;2024-01-15T02:29:09;-2.80;99.90
14359;DHT22;7263;49.418;11.064;2024-01-15T02:31:37;-2.80;99.90
14359;DHT22;7263;49.418;11.064;2024-01-15T02:34:07;-2.80;99.90
14359;DHT22;7263;49.418;11.064;2024-01-15T02:36:36;-2.80;99.90
14359;DHT22;7263;49.418;11.064;2024-01-15T02:39:03;-2.70;99.90
14359;DHT22;7263;49.418;11.064;2024-01-15T02:41:34;-2.70;99.90
14359;DHT22;7263;49.418;11.064;2024-01-15T02:44:01;-2.60;99.90
14359;DHT22;7263;49.418;11.064;2024-01-15T02:46:30;-2.60;99.90
14359;DHT22;7263;49.418;11.064;2024-01-15T02:48:57;-2.60;99.90
14359;DHT22;7263;49.418;11.064;2024-01-15T02:51:23;-2.60;99.90
14359;DHT22;7263;49.418;11.064;2024-01-15T02:53:50;-2.60;99.90
14359;DHT22;7263;49.418;11.064;2024-01-15T02:56:17;-2.60;99.90
14359;DHT22;7263;49.418;11.064;2024-01-15T02:58:47;-2.60;99.90
14359;DHT22;7263;49.418;11.064;2024-01-15T03:01:14;-2.50;99.90
14359;DHT22;7263;49.418;11.064;2024-01-15T03:03:40;-2.60;99.90
14359;DHT22;7263;49.418;11.064;2024-01-15T03:06:07;-2.60;99.90
14359;DHT22;7263;49.418;11.064;2024-01-15T03:08:36;-2.50;99.90
14359;DHT22;7263;49.418;11.064;2024-01-15T03:11:03;-2.50;99.90
14359;DHT22;7263;49.418;11.064;2024-01-15T03:13:35;-2.50;99.90
14359;DHT22;7263;49.418;11.064;2024-01-15T03:16:06;-2.50;99.90
14359;DHT22;7263;49.418;11.064;2024-01-15T03:18:33;-2.50;99.90
14359;DHT22;7263;49.418;11.064;2024-01-15T03:21:00;-2.50;99.90
14359;DHT22;7263;49.418;11.064;2024-01-15T03:23:32;-2.50;99.90
14359;DHT22;7263;49.418;11.064;2024-01-15T03:25:59;-2.50;99.90
14359;DHT22;7263;49.418;11.064;2024-01-15T03:28:32;-2.50;99.90
14359;DHT22;7263;49.418;11.064;2024-01-15T03:30:59;-2.50;99.90
14359;DHT22;7263;49.418;11.064;2024-01-15T03:33:27;-2.50;99.90
14359;DHT22;7263;49.418;11.064;2024-01-15T03:36:03;-2.50;99.90
14359;DHT22;7263;49.418;11.064;2024-01-15T03:38:34;-2.50;99.90
14359;DHT22;7263;49.418;11.064;2024-01-15T03:41:06;-2.50;99.90
14359;DHT22;7263;49.418;11.064;2024-01-15T03:43:36;-2.50;99.90
14359;DHT22;7263;49.418;11.064;2024-01-15T03:46:09;-2.50;99.90
14359;DHT22;7263;49.418;11.064;2024-01-15T03:48:37;-2.40;99.90
14359;DHT22;7263;49.418;11.064;2024-01-15T03:51:09;-2.50;99.90
14359;DHT22;7263;49.418;11.064;2024-01-15T03:53:42;-2.40;99.90
14359;DHT22;7263;49.418;11.064;2024-01-15T03:56:12;-2.50;99.90
14359;DHT22;7263;49.418;11.064;2024-01-15T03:58:42;-2.40;99.90
14359;DHT22;7263;49.418;11.064;2024-01-15T04:01:09;-2.40;99.90
14359;DHT22;7263;49.418;11.064;2024-01-15T04:03:40;-2.20;99.90
14359;DHT22;7263;49.418;11.064;2024-01-15T04:06:10;-2.30;99.90
14359;DHT22;7263;49.418;11.064;2024-01-15T04:08:39;-2.30;99.90
14359;DHT22;7263;49.418;11.064;2024-01-15T04:11:13;-2.30;99.90
14359;DHT22;7263;49.418;11.064;2024-01-15T04:13:40;-2.30;99.90
14359;DHT22;7263;49.418;11.064;2024-01-15T04:16:14;-2.30;99.90
14359;DHT22;7263;49.418;11.064;2024-01-15T04:18:42;-2.30;99.90
14359;DHT22;7263;49.418;11.064;2024-01-15T04:21:12;-2.30;99.90
14359;DHT22;7263;49.418;11.064;2024-01-15T04:23:39;-2.30;99.90
14359;DHT22;7263;49.418;11.064;2024-01-15T04:26:06;-2.30;99.90
14359;DHT22;7263;49.418;11.064;2024-01-15T04:28:34;-2.30;99.90
14359;DHT22;7263;49.418;11.064;2024-01-15T04:31:01;-2.20;99.90
14359;DHT22;7263;49.418;11.064;2024-01-15T04:33:31;-2.20;99.90
14359;DHT22;7263;49.418;11.064;2024-01-15T04:36:04;-2.20;99.90
14359;DHT22;7263;49.418;11.064;2024-01-15T04:38:34;-2.00;99.90
14359;DHT22;7263;49.418;11.064;2024-01-15T04:41:09;-1.80;99.90
14359;DHT22;7263;49.418;11.064;2024-01-15T04:43:36;-1.80;99.90
14359;DHT22;7263;49.418;11.064;2024-01-15T04:46:11;-1.70;99.90
14359;DHT22;7263;49.418;11.064;2024-01-15T04:48:44;-1.70;99.90
14359;DHT22;7263;49.418;11.064;2024-01-15T04:51:12;-1.70;99.90
14359;DHT22;7263;49.418;11.064;2024-01-15T04:53:41;-1.70;99.90
14359;DHT22;7263;49.418;11.064;2024-01-15T04:56:18;-1.80;99.90
14359;DHT22;7263;49.418;11.064;2024-01-15T04:58:45;-1.80;99.90
14359;DHT22;7263;49.418;11.064;2024-01-15T05:01:18;-1.80;99.90
14359;DHT22;7263;49.418;11.064;2024-01-15T05:03:45;-1.90;99.90
14359;DHT22;7263;49.418;11.064;2024-01-15T05:06:28;-1.90;99.90
14359;DHT22;7263;49.418;11.064;2024-01-15T05:09:02;-1.90;99.90
14359;DHT22;7263;49.418;11.064;2024-01-15T05:11:29;-1.90;99.90
14359;DHT22;7263;49.418;11.064;2024-01-15T05:14:02;-1.90;99.90
14359;DHT22;7263;49.418;11.064;2024-01-15T05:16:46;-1.90;99.90
14359;DHT22;7263;49.418;11.064;2024-01-15T05:19:15;-1.90;99.90
14359;DHT22;7263;49.418;11.064;2024-01-15T05:21:46;-1.90;99.90
14359;DHT22;7263;49.418;11.064;2024-01-15T05:24:13;-1.90;99.90
14359;DHT22;7263;49.418;11.064;2024-01-15T05:26:49;-1.90;99.90
14359;DHT22;7263;49.418;11.064;2024-01-15T05:29:18;-1.90;99.90
14359;DHT22;7263;49.418;11.064;2024-01-15T05:31:45;-1.90;99.90
14359;DHT22;7263;49.418;11.064;2024-01-15T05:34:11;-1.90;99.90
14359;DHT22;7263;49.418;11.064;2024-01-15T05:36:41;-1.90;99.90
14359;DHT22;7263;49.418;11.064;2024-01-15T05:39:12;-1.90;99.90
14359;DHT22;7263;49.418;11.064;2024-01-15T05:41:39;-1.90;99.90
14359;DHT22;7263;49.418;11.064;2024-01-15T05:44:07;-1.80;99.90
14359;DHT22;7263;49.418;11.064;2024-01-15T05:46:34;-1.80;99.90
14359;DHT22;7263;49.418;11.064;2024-01-15T05:49:01;-1.80;99.90
14359;DHT22;7263;49.418;11.064;2024-01-15T05:51:36;-1.80;99.90
14359;DHT22;7263;49.418;11.064;2024-01-15T05:54:03;-1.80;99.90
14359;DHT22;7263;49.418;11.064;2024-01-15T05:56:38;-1.80;99.90
14359;DHT22;7263;49.418;11.064;2024-01-15T05:59:11;-1.70;99.90
14359;DHT22;7263;49.418;11.064;2024-01-15T06:01:53;-1.70;99.90
14359;DHT22;7263;49.418;11.064;2024-01-15T06:04:20;-1.70;99.90
14359;DHT22;7263;49.418;11.064;2024-01-15T06:06:49;-1.70;99.90
14359;DHT22;7263;49.418;11.064;2024-01-15T06:09:16;-1.70;99.90
14359;DHT22;7263;49.418;11.064;2024-01-15T06:11:44;-1.60;99.90
14359;DHT22;7263;49.418;11.064;2024-01-15T06:14:17;-1.60;99.90
14359;DHT22;7263;49.418;11.064;2024-01-15T06:16:44;-1.60;99.90
14359;DHT22;7263;49.418;11.064;2024-01-15T06:19:11;-1.60;99.90
14359;DHT22;7263;49.418;11.064;2024-01-15T06:21:41;-1.50;99.90
14359;DHT22;7263;49.418;11.064;2024-01-15T06:24:14;-1.60;99.90
14359;DHT22;7263;49.418;11.064;2024-01-15T06:26:45;-1.50;99.90
14359;DHT22;7263;49.418;11.064;2024-01-15T06:29:12;-1.60;99.90
14359;DHT22;7263;49.418;11.064;2024-01-15T06:31:39;-1.50;99.90
14359;DHT22;7263;49.418;11.064;2024-01-15T06:34:06;-1.50;99.90
14359;DHT22;7263;49.418;11.064;2024-01-15T06:36:34;-1.50;99.90
14359;DHT22;7263;49.418;11.064;2024-01-15T06:39:01;-1.50;99.90
14359;DHT22;7263;49.418;11.064;2024-01-15T06:41:38;-1.50;99.90
14359;DHT22;7263;49.418;11.064;2024-01-15T06:44:19;-1.50;99.90
14359;DHT22;7263;49.418;11.064;2024-01-15T06:46:55;-1.50;99.90
14359;DHT22;7263;49.418;11.064;2024-01-15T06:49:26;-1.50;99.90
14359;DHT22;7263;49.418;11.064;2024-01-15T06:51:55;-1.50;99.90
14359;DHT22;7263;49.418;11.064;2024-01-15T06:54:22;-1.50;99.90
14359;DHT22;7263;49.418;11.064;2024-01-15T06:56:51;-1.50;99.90
14359;DHT22;7263;49.418;11.064;2024-01-15T06:59:24;-1.50;99.90
14359;DHT22;7263;49.418;11.064;2024-01-15T07:01:51;-1.50;99.90
14359;DHT22;7263;49.418;11.064;2024-01-15T07:04:18;-1.50;99.90
14359;DHT22;7263;49.418;11.064;2024-01-15T07:06:44;-1.50;99.90
14359;DHT22;7263;49.418;11.064;2024-01-15T07:09:13;-1.40;99.90
14359;DHT22;7263;49.418;11.064;2024-01-15T07:11:47;-1.50;99.90
14359;DHT22;7263;49.418;11.064;2024-01-15T07:14:13;-1.40;99.90
14359;DHT22;7263;49.418;11.064;2024-01-15T07:16:42;-1.40;99.90
14359;DHT22;7263;49.418;11.064;2024-01-15T07:19:11;-1.40;99.90
14359;DHT22;7263;49.418;11.064;2024-01-15T07:21:40;-1.30;99.90
14359;DHT22;7263;49.418;11.064;2024-01-15T07:24:11;-1.40;99.90
14359;DHT22;7263;49.418;11.064;2024-01-15T07:26:43;-1.30;99.90
14359;DHT22;7263;49.418;11.064;2024-01-15T07:29:10;-1.30;99.90
14359;DHT22;7263;49.418;11.064;2024-01-15T07:31:36;-1.40;99.90
14359;DHT22;7263;49.418;11.064;2024-01-15T07:34:04;-1.40;99.90
14359;DHT22;7263;49.418;11.064;2024-01-15T07:36:34;-1.40;99.90
14359;DHT22;7263;49.418;11.064;2024-01-15T07:39:08;-1.50;99.90
14359;DHT22;7263;49.418;11.064;2024-01-15T07:41:41;-1.50;99.90
14359;DHT22;7263;49.418;11.064;2024-01-15T07:44:13;-1.40;99.90
14359;DHT22;7263;49.418;11.064;2024-01-15T07:46:40;-1.50;99.90
14359;DHT22;7263;49.418;11.064;2024-01-15T07:49:11;-1.40;99.90
14359;DHT22;7263;49.418;11.064;2024-01-15T07:51:38;-1.40;99.90
14359;DHT22;7263;49.418;11.064;2024-01-15T07:54:05;-1.40;99.90
14359;DHT22;7263;49.418;11.064;2024-01-15T07:56:32;-1.40;99.90
14359;DHT22;7263;49.418;11.064;2024-01-15T07:59:01;-1.40;99.90
14359;DHT22;7263;49.418;11.064;2024-01-15T08:01:30;-1.30;99.90
14359;DHT22;7263;49.418;11.064;2024-01-15T08:03:57;-1.30;99.90
14359;DHT22;7263;49.418;11.064;2024-01-15T08:06:28;-1.30;99.90
14359;DHT22;7263;49.418;11.064;2024-01-15T08:08:54;-1.30;99.90
14359;DHT22;7263;49.418;11.064;2024-01-15T08:11:21;-1.20;99.90
14359;DHT22;7263;49.418;11.064;2024-01-15T08:13:47;-1.20;99.90
14359;DHT22;7263;49.418;11.064;2024-01-15T08:16:17;-1.20;99.90
14359;DHT22;7263;49.418;11.064;2024-01-15T08:18:47;-1.20;99.90
14359;DHT22;7263;49.418;11.064;2024-01-15T08:21:20;-1.20;99.90
14359;DHT22;7263;49.418;11.064;2024-01-15T08:23:50;-1.10;99.90
14359;DHT22;7263;49.418;11.064;2024-01-15T08:26:20;-1.10;99.90
14359;DHT22;7263;49.418;11.064;2024-01-15T08:28:50;-1.10;99.90
14359;DHT22;7263;49.418;11.064;2024-01-15T08:31:20;-1.00;99.90
14359;DHT22;7263;49.418;11.064;2024-01-15T08:33:46;-1.00;99.90
14359;DHT22;7263;49.418;11.064;2024-01-15T08:36:13;-1.00;99.90
14359;DHT22;7263;49.418;11.064;2024-01-15T08:38:43;-1.00;99.90
14359;DHT22;7263;49.418;11.064;2024-01-15T08:41:13;-1.00;99.90
14359;DHT22;7263;49.418;11.064;2024-01-15T08:43:40;-0.90;99.90
14359;DHT22;7263;49.418;11.064;2024-01-15T08:46:09;-0.90;99.90
14359;DHT22;7263;49.418;11.064;2024-01-15T08:48:36;-0.90;99.90
14359;DHT22;7263;49.418;11.064;2024-01-15T08:51:06;-0.90;99.90
14359;DHT22;7263;49.418;11.064;2024-01-15T08:53:40;-0.90;99.90
14359;DHT22;7263;49.418;11.064;2024-01-15T08:56:07;-0.80;99.90
14359;DHT22;7263;49.418;11.064;2024-01-15T08:58:40;-0.80;99.90
14359;DHT22;7263;49.418;11.064;2024-01-15T09:01:06;-0.80;99.90
14359;DHT22;7263;49.418;11.064;2024-01-15T09:03:36;-0.80;99.90
14359;DHT22;7263;49.418;11.064;2024-01-15T09:06:08;-0.80;99.90
14359;DHT22;7263;49.418;11.064;2024-01-15T09:08:38;-0.70;99.90
14359;DHT22;7263;49.418;11.064;2024-01-15T09:11:04;-0.70;99.90
14359;DHT22;7263;49.418;11.064;2024-01-15T09:13:31;-0.70;99.90
14359;DHT22;7263;49.418;11.064;2024-01-15T09:15:59;-0.70;99.90
14359;DHT22;7263;49.418;11.064;2024-01-15T09:18:28;-0.70;99.90
14359;DHT22;7263;49.418;11.064;2024-01-15T09:20:58;-0.60;99.90
14359;DHT22;7263;49.418;11.064;2024-01-15T09:23:28;-0.60;99.90
14359;DHT22;7263;49.418;11.064;2024-01-15T09:25:55;-0.60;99.90
14359;DHT22;7263;49.418;11.064;2024-01-15T09:28:21;-0.60;99.90
14359;DHT22;7263;49.418;11.064;2024-01-15T09:30:51;-0.60;99.90
14359;DHT22;7263;49.418;11.064;2024-01-15T09:33:40;-0.50;99.90
14359;DHT22;7263;49.418;11.064;2024-01-15T09:36:08;-0.50;99.90
14359;DHT22;7263;49.418;11.064;2024-01-15T09:38:40;-0.50;99.90
14359;DHT22;7263;49.418;11.064;2024-01-15T09:41:07;-0.50;99.90
14359;DHT22;7263;49.418;11.064;2024-01-15T09:43:35;-0.50;99.90
14359;DHT22;7263;49.418;11.064;2024-01-15T09:46:03;-0.40;99.90
14359;DHT22;7263;49.418;11.064;2024-01-15T09:48:33;-0.30;99.90
14359;DHT22;7263;49.418;11.064;2024-01-15T09:51:14;-0.30;99.90
14359;DHT22;7263;49.418;11.064;2024-01-15T09:53:43;-0.10;99.90
14359;DHT22;7263;49.418;11.064;2024-01-15T09:56:10;-0.10;99.90
14359;DHT22;7263;49.418;11.064;2024-01-15T09:58:37;0.00;99.90
14359;DHT22;7263;49.418;11.064;2024-01-15T11:25:35;0.10;99.90
14359;DHT22;7263;49.418;11.064;2024-01-15T11:28:03;0.10;99.90
14359;DHT22;7263;49.418;11.064;2024-01-15T11:30:30;0.10;99.90
14359;DHT22;7263;49.418;11.064;2024-01-15T11:33:01;0.00;99.90
14359;DHT22;7263;49.418;11.064;2024-01-15T11:38:11;-0.10;99.90
14359;DHT22;7263;49.418;11.064;2024-01-15T11:40:43;-0.10;99.90
14359;DHT22;7263;49.418;11.064;2024-01-15T11:43:14;0.00;99.90
14359;DHT22;7263;49.418;11.064;2024-01-15T11:45:45;0.10;99.90
14359;DHT22;7263;49.418;11.064;2024-01-15T11:48:14;0.10;99.90
14359;DHT22;7263;49.418;11.064;2024-01-15T11:50:44;0.20;99.90
14359;DHT22;7263;49.418;11.064;2024-01-15T11:53:27;0.30;99.90
14359;DHT22;7263;49.418;11.064;2024-01-15T11:55:56;2.80;99.90
14359;DHT22;7263;49.418;11.064;2024-01-15T11:58:24;0.20;99.90
14359;DHT22;7263;49.418;11.064;2024-01-15T12:00:51;0.20;99.90
14359;DHT22;7263;49.418;11.064;2024-01-15T12:03:20;0.30;99.90
14359;DHT22;7263;49.418;11.064;2024-01-15T12:05:54;0.30;99.90
14359;DHT22;7263;49.418;11.064;2024-01-15T12:08:24;0.30;99.90
14359;DHT22;7263;49.418;11.064;2024-01-15T12:10:52;0.30;99.90
14359;DHT22;7263;49.418;11.064;2024-01-15T12:13:23;0.30;99.90
14359;DHT22;7263;49.418;11.064;2024-01-15T12:15:54;0.30;99.90
14359;DHT22;7263;49.418;11.064;2024-01-15T12:18:20;0.30;99.90
14359;DHT22;7263;49.418;11.064;2024-01-15T12:20:47;0.20;99.90
14359;DHT22;7263;49.418;11.064;2024-01-15T12:23:16;0.20;99.90
14359;DHT22;7263;49.418;11.064;2024-01-15T12:25:46;0.20;99.90
14359;DHT22;7263;49.418;11.064;2024-01-15T12:28:16;0.10;99.90
14359;DHT22;7263;49.418;11.064;2024-01-15T12:30:46;0.20;99.90
14359;DHT22;7263;49.418;11.064;2024-01-15T12:33:17;0.20;99.90
14359;DHT22;7263;49.418;11.064;2024-01-15T12:35:44;0.30;99.90
14359;DHT22;7263;49.418;11.064;2024-01-15T12:38:10;0.20;99.90
14359;DHT22;7263;49.418;11.064;2024-01-15T12:40:38;0.30;99.90
14359;DHT22;7263;49.418;11.064;2024-01-15T12:43:06;0.30;99.90
14359;DHT22;7263;49.418;11.064;2024-01-15T12:45:33;0.30;99.90
14359;DHT22;7263;49.418;11.064;2024-01-15T12:48:02;0.40;99.90
14359;DHT22;7263;49.418;11.064;2024-01-15T12:50:29;0.40;99.90
14359;DHT22;7263;49.418;11.064;2024-01-15T12:52:56;0.40;99.90
14359;DHT22;7263;49.418;11.064;2024-01-15T12:55:24;0.40;99.90
14359;DHT22;7263;49.418;11.064;2024-01-15T12:57:54;0.30;99.90
14359;DHT22;7263;49.418;11.064;2024-01-15T13:00:27;0.30;99.90
14359;DHT22;7263;49.418;11.064;2024-01-15T13:02:59;0.30;99.90
14359;DHT22;7263;49.418;11.064;2024-01-15T13:05:30;0.30;99.90
14359;DHT22;7263;49.418;11.064;2024-01-15T13:07:58;0.30;99.90
14359;DHT22;7263;49.418;11.064;2024-01-15T13:10:25;0.30;99.90
14359;DHT22;7263;49.418;11.064;2024-01-15T13:12:57;0.30;99.90
14359;DHT22;7263;49.418;11.064;2024-01-15T13:15:24;0.20;99.90
14359;DHT22;7263;49.418;11.064;2024-01-15T13:17:58;0.20;99.90
14359;DHT22;7263;49.418;11.064;2024-01-15T13:20:25;0.20;99.90
14359;DHT22;7263;49.418;11.064;2024-01-15T13:22:58;0.30;99.90
14359;DHT22;7263;49.418;11.064;2024-01-15T13:25:25;0.20;99.90
14359;DHT22;7263;49.418;11.064;2024-01-15T13:27:54;0.20;99.90
14359;DHT22;7263;49.418;11.064;2024-01-15T13:30:20;0.20;99.90
14359;DHT22;7263;49.418;11.064;2024-01-15T13:32:47;0.20;99.90
14359;DHT22;7263;49.418;11.064;2024-01-15T13:35:21;0.20;99.90
14359;DHT22;7263;49.418;11.064;2024-01-15T13:37:48;0.20;99.90
14359;DHT22;7263;49.418;11.064;2024-01-15T13:40:18;0.20;99.90
14359;DHT22;7263;49.418;11.064;2024-01-15T13:42:55;0.10;99.90
14359;DHT22;7263;49.418;11.064;2024-01-15T13:45:24;0.10;99.90
14359;DHT22;7263;49.418;11.064;2024-01-15T13:48:04;0.10;99.90
14359;DHT22;7263;49.418;11.064;2024-01-15T13:50:31;2.70;99.90
14359;DHT22;7263;49.418;11.064;2024-01-15T13:52:58;0.00;99.90
14359;DHT22;7263;49.418;11.064;2024-01-15T13:55:26;0.00;99.90
14359;DHT22;7263;49.418;11.064;2024-01-15T13:57:52;0.00;99.90
14359;DHT22;7263;49.418;11.064;2024-01-15T14:00:19;0.00;99.90
14359;DHT22;7263;49.418;11.064;2024-01-15T14:02:51;0.00;99.90
14359;DHT22;7263;49.418;11.064;2024-01-15T14:05:18;0.00;99.90
14359;DHT22;7263;49.418;11.064;2024-01-15T14:07:45;0.00;99.90
14359;DHT22;7263;49.418;11.064;2024-01-15T14:10:12;0.00;99.90
14359;DHT22;7263;49.418;11.064;2024-01-15T14:12:43;-0.10;99.90
14359;DHT22;7263;49.418;11.064;2024-01-15T14:15:10;0.00;99.90
14359;DHT22;7263;49.418;11.064;2024-01-15T14:17:37;0.00;99.90
14359;DHT22;7263;49.418;11.064;2024-01-15T14:20:04;0.00;99.90
14359;DHT22;7263;49.418;11.064;2024-01-15T14:22:31;0.00;99.90
14359;DHT22;7263;49.418;11.064;2024-01-15T14:25:01;1.40;99.90
14359;DHT22;7263;49.418;11.064;2024-01-15T14:27:30;-0.10;99.90
14359;DHT22;7263;49.418;11.064;2024-01-15T14:29:59;0.00;99.90
14359;DHT22;7263;49.418;11.064;2024-01-15T14:32:25;0.00;99.90
14359;DHT22;7263;49.418;11.064;2024-01-15T14:34:58;0.00;99.90
14359;DHT22;7263;49.418;11.064;2024-01-15T14:37:28;-0.10;99.90
14359;DHT22;7263;49.418;11.064;2024-01-15T14:40:09;-0.10;99.90
14359;DHT22;7263;49.418;11.064;2024-01-15T14:42:35;-0.10;99.90
14359;DHT22;7263;49.418;11.064;2024-01-15T14:45:06;-0.10;99.90
14359;DHT22;7263;49.418;11.064;2024-01-15T14:47:37;-0.10;99.90
14359;DHT22;7263;49.418;11.064;2024-01-15T14:50:04;-0.10;99.90
14359;DHT22;7263;49.418;11.064;2024-01-15T14:52:31;-0.20;99.90
14359;DHT22;7263;49.418;11.064;2024-01-15T14:54:59;-0.20;99.90
14359;DHT22;7263;49.418;11.064;2024-01-15T14:57:26;-0.20;99.90
14359;DHT22;7263;49.418;11.064;2024-01-15T14:59:55;-0.20;99.90
14359;DHT22;7263;49.418;11.064;2024-01-15T15:02:24;-0.10;99.90
14359;DHT22;7263;49.418;11.064;2024-01-15T15:04:53;-0.10;99.90
14359;DHT22;7263;49.418;11.064;2024-01-15T15:07:21;-0.10;99.90
14359;DHT22;7263;49.418;11.064;2024-01-15T15:09:47;-0.10;99.90
14359;DHT22;7263;49.418;11.064;2024-01-15T15:12:16;-0.20;99.90
14359;DHT22;7263;49.418;11.064;2024-01-15T15:14:43;-0.20;99.90
14359;DHT22;7263;49.418;11.064;2024-01-15T15:17:12;-0.20;99.90
14359;DHT22;7263;49.418;11.064;2024-01-15T15:19:43;-0.20;99.90
14359;DHT22;7263;49.418;11.064;2024-01-15T15:22:09;-0.20;99.90
14359;DHT22;7263;49.418;11.064;2024-01-15T15:24:36;-0.30;99.90
14359;DHT22;7263;49.418;11.064;2024-01-15T15:27:05;-0.30;99.90
14359;DHT22;7263;49.418;11.064;2024-01-15T15:29:34;-0.20;99.90
14359;DHT22;7263;49.418;11.064;2024-01-15T15:32:03;-0.30;99.90
14359;DHT22;7263;49.418;11.064;2024-01-15T15:34:33;-0.30;99.90
14359;DHT22;7263;49.418;11.064;2024-01-15T15:37:04;-0.30;99.90
14359;DHT22;7263;49.418;11.064;2024-01-15T15:39:39;-0.40;99.90
14359;DHT22;7263;49.418;11.064;2024-01-15T15:42:08;-0.40;99.90
14359;DHT22;7263;49.418;11.064;2024-01-15T15:44:34;-0.40;99.90
14359;DHT22;7263;49.418;11.064;2024-01-15T15:47:01;-0.40;99.90
14359;DHT22;7263;49.418;11.064;2024-01-15T15:49:28;-0.40;99.90
14359;DHT22;7263;49.418;11.064;2024-01-15T15:52:01;-0.40;99.90
14359;DHT22;7263;49.418;11.064;2024-01-15T15:54:33;-0.40;99.90
14359;DHT22;7263;49.418;11.064;2024-01-15T15:56:59;-0.40;99.90
14359;DHT22;7263;49.418;11.064;2024-01-15T15:59:28;-0.50;99.90
14359;DHT22;7263;49.418;11.064;2024-01-15T16:01:57;-0.50;99.90
14359;DHT22;7263;49.418;11.064;2024-01-15T16:04:26;-0.50;99.90
14359;DHT22;7263;49.418;11.064;2024-01-15T16:06:52;-0.50;99.90
14359;DHT22;7263;49.418;11.064;2024-01-15T16:09:19;-0.50;99.90
14359;DHT22;7263;49.418;11.064;2024-01-15T16:11:48;-0.50;99.90
14359;DHT22;7263;49.418;11.064;2024-01-15T16:14:15;-0.50;99.90
14359;DHT22;7263;49.418;11.064;2024-01-15T16:16:43;-0.60;99.90
14359;DHT22;7263;49.418;11.064;2024-01-15T16:19:10;-0.60;99.90
14359;DHT22;7263;49.418;11.064;2024-01-15T16:24:41;-0.50;99.90
14359;DHT22;7263;49.418;11.064;2024-01-15T16:27:10;-0.50;99.90
14359;DHT22;7263;49.418;11.064;2024-01-15T16:29:39;-0.50;99.90
14359;DHT22;7263;49.418;11.064;2024-01-15T16:32:09;-0.50;99.90
14359;DHT22;7263;49.418;11.064;2024-01-15T16:34:35;-0.50;99.90
14359;DHT22;7263;49.418;11.064;2024-01-15T16:37:02;-0.60;99.90
14359;DHT22;7263;49.418;11.064;2024-01-15T16:39:31;2.20;99.90
14359;DHT22;7263;49.418;11.064;2024-01-15T16:41:58;-0.50;99.90
14359;DHT22;7263;49.418;11.064;2024-01-15T16:44:35;-0.50;99.90
14359;DHT22;7263;49.418;11.064;2024-01-15T16:47:02;-0.60;99.90
14359;DHT22;7263;49.418;11.064;2024-01-15T16:49:32;-0.50;99.90
14359;DHT22;7263;49.418;11.064;2024-01-15T16:51:59;-0.50;99.90
14359;DHT22;7263;49.418;11.064;2024-01-15T16:54:30;-0.50;99.90
14359;DHT22;7263;49.418;11.064;2024-01-15T16:56:57;-0.50;99.90
14359;DHT22;7263;49.418;11.064;2024-01-15T16:59:24;-0.50;99.90
14359;DHT22;7263;49.418;11.064;2024-01-15T17:01:55;-0.50;99.90
14359;DHT22;7263;49.418;11.064;2024-01-15T17:04:25;-0.50;99.90
14359;DHT22;7263;49.418;11.064;2024-01-15T17:06:51;-0.60;99.90
14359;DHT22;7263;49.418;11.064;2024-01-15T17:09:18;-0.60;99.90
14359;DHT22;7263;49.418;11.064;2024-01-15T17:11:45;-0.50;99.90
14359;DHT22;7263;49.418;11.064;2024-01-15T17:14:14;-0.60;99.90
14359;DHT22;7263;49.418;11.064;2024-01-15T17:17:00;-0.50;99.90
14359;DHT22;7263;49.418;11.064;2024-01-15T17:19:27;-0.50;99.90